メインページ
METAR-TAF:

METAR-TAF

空港 :

メルボルン, オーストラリア

メルボルン空港

緯度: 37-40-24S, 経度: 144-50-36E, 海抜: 132m

現時点の気象観測

当レポートは10分前の10:30(UTC)に作成
の風 18kt、最大29ktの突風を伴う
気温 30°C
湿度 27%
気圧 1004 hPa
視程: 1100m
1,500メートル以下は雲なし、積乱雲なし

METAR: YMML 231030Z 01018G29KT CAVOK 30/09 Q1004 FM1030 MOD TURB BLW 5000FT TILL 1100 FM1100 MOD/SEV TURB BLW 5000FT

時間: 21:40 (10:40 UTC)

予報

当レポートは5時間30分前の05:10(UTC)に作成
予報は23日の 06時(UTC)から 24日の 12時(UTC)まで有効
の風 18kt、最大32ktの突風を伴う
視程10km以上
1,500メートル以下は雲なし、積乱雲なし
24日の 0000時(UTC)から
西/北西の風 15kt、最大25ktの突風を伴う
視程10km以上
高度5000ftの千切れ雲あり
弱いにわか雨
24日の 0300時(UTC)から
南/南西の風 18kt、最大30ktの突風を伴う
視程10km以上
高度1500ftの雲はほとんどない
高度2000ftの千切れ雲あり
弱いにわか雨
24日の 0800時(UTC)から
南/南西の風 15kt、最大25ktの突風を伴う
視程: 5000m
高度2000ftの雲は散在している
高度3500ftの千切れ雲あり
高度1200ftの千切れ雲あり
弱いにわか雨, にわか雨

TAF: YMML 230510Z 2306/2412 36018G32KT CAVOK FM240000 30015G25KT 9999 -SHRA BKN050 FM240300 21018G30KT 9999 -SHRA FEW015 BKN020 FM240800 20015G25KT 9999 -SHRA SCT020 BKN035 INTER 2403/2410 5000 SHRA BKN012

4,000以上の空港の気象観測と天気予報(METAR報とTAF報)

利用可能な観測所は地図上に黄色い丸と赤い丸で示す。

丸の上にカーソルを重ねると観測所名を参照できる。

次にクリックすると気象観測と天気予報を参照できる。

マップの切り替え:黒色「×」印の緑ボタンをクリックして拡大、「-」印の緑ボタンをクリックして縮小、緑色の三角印をクリックして隣りの地図に切り替え


METAR-TAF: